UAE29V OMDB-EDDF
Flight info
| Callsign | UAE29V |
|---|---|
| Flight time | N/A |
| Altitude | 35000 |
| Route | ANVIX L223 TARDI N629 BOTAM Y855 LAKLU/N0494F340 Q204 NALKI G652 TOKRA DCT ALROK DCT BOSOB DCT ITRUX Y511 NAGBO/N0493F360 Y511 PMA Z712 WEJ L677 GESON Q777 RASDA DCT OTHON DCT VAXOS DCT RDS UL609 MES DCT EVIVI/N0489F380 DCT OKANA DCT BABIT DCT ARSIN DCT SUBEN T161 DEBHI DEBHI1C |
| Aircraft | B77W/H-SDE1E2E3FGHIJ2J3J4J5M1RWXY/LB1D1 |
Departure
| Time | 2026-04-22 11:00 |
|---|---|
| Airport | Dubai International Airport (OMDB) |
Arrival
| Time | N/A |
|---|---|
| Airport | Frankfurt Main Airport (EDDF) |
| Time | Latitude | Longitude | Altitude | Speed | Heading |
|---|---|---|---|---|---|
| 2026-04-22 09:17 | 25.24587 | 55.36615 | 27 ft | 0 kts | 312° |
| 2026-04-22 10:43 | 25.24576 | 55.36629 | 32 ft | 4 kts | 304° |
| 2026-04-22 10:43 | 25.24563 | 55.36654 | 32 ft | 4 kts | 288° |
| 2026-04-22 10:44 | 25.24558 | 55.36682 | 29 ft | 4 kts | 272° |
| 2026-04-22 10:44 | 25.24558 | 55.36712 | 30 ft | 4 kts | 268° |
| 2026-04-22 10:44 | 25.24557 | 55.36739 | 32 ft | 4 kts | 288° |
| 2026-04-22 10:44 | 25.24548 | 55.36756 | 32 ft | 4 kts | 314° |
| 2026-04-22 10:45 | 25.24529 | 55.36773 | 32 ft | 4 kts | 336° |
| 2026-04-22 10:45 | 25.24511 | 55.36779 | 32 ft | 4 kts | 14° |
| 2026-04-22 10:45 | 25.24491 | 55.36769 | 32 ft | 4 kts | 32° |
| 2026-04-22 10:45 | 25.24468 | 55.36753 | 32 ft | 4 kts | 33° |
| 2026-04-22 10:46 | 25.24450 | 55.36740 | 33 ft | 0 kts | 31° |
| 2026-04-22 10:51 | 25.24466 | 55.36750 | 32 ft | 7 kts | 31° |
| 2026-04-22 10:51 | 25.24526 | 55.36790 | 32 ft | 11 kts | 31° |
| 2026-04-22 10:51 | 25.24587 | 55.36831 | 31 ft | 10 kts | 31° |
| 2026-04-22 10:52 | 25.24642 | 55.36867 | 26 ft | 9 kts | 31° |
| 2026-04-22 10:52 | 25.24675 | 55.36892 | 26 ft | 4 kts | 36° |
| 2026-04-22 10:52 | 25.24689 | 55.36916 | 27 ft | 4 kts | 73° |
| 2026-04-22 10:52 | 25.24688 | 55.36947 | 26 ft | 5 kts | 99° |
| 2026-04-22 10:53 | 25.24662 | 55.37010 | 27 ft | 13 kts | 119° |
| 2026-04-22 10:53 | 25.24612 | 55.37100 | 27 ft | 14 kts | 122° |
| 2026-04-22 10:53 | 25.24559 | 55.37195 | 26 ft | 15 kts | 121° |
| 2026-04-22 10:53 | 25.24502 | 55.37297 | 26 ft | 16 kts | 122° |
| 2026-04-22 10:54 | 25.24444 | 55.37400 | 26 ft | 16 kts | 121° |
| 2026-04-22 10:54 | 25.24386 | 55.37504 | 26 ft | 16 kts | 121° |
| 2026-04-22 10:54 | 25.24328 | 55.37606 | 26 ft | 16 kts | 121° |
| 2026-04-22 10:54 | 25.24278 | 55.37697 | 27 ft | 10 kts | 121° |
| 2026-04-22 10:55 | 25.24274 | 55.37763 | 26 ft | 8 kts | 63° |
| 2026-04-22 10:55 | 25.24318 | 55.37806 | 28 ft | 9 kts | 34° |
| 2026-04-22 10:55 | 25.24342 | 55.37824 | 28 ft | 0 kts | 34° |
| 2026-04-22 10:56 | 25.24348 | 55.37829 | 29 ft | 3 kts | 34° |
| 2026-04-22 10:56 | 25.24368 | 55.37843 | 30 ft | 6 kts | 34° |
| 2026-04-22 10:56 | 25.24431 | 55.37890 | 34 ft | 12 kts | 34° |
| 2026-04-22 10:56 | 25.24501 | 55.37944 | 37 ft | 12 kts | 34° |
| 2026-04-22 10:57 | 25.24578 | 55.38003 | 30 ft | 14 kts | 34° |
| 2026-04-22 10:57 | 25.24633 | 55.38041 | 30 ft | 0 kts | 32° |
| 2026-04-22 10:57 | 25.24637 | 55.38044 | 29 ft | 2 kts | 32° |
| 2026-04-22 10:58 | 25.24660 | 55.38060 | 29 ft | 6 kts | 32° |
| 2026-04-22 10:58 | 25.24699 | 55.38086 | 33 ft | 7 kts | 31° |
| 2026-04-22 10:58 | 25.24743 | 55.38107 | 35 ft | 7 kts | 359° |
| 2026-04-22 10:58 | 25.24774 | 55.38080 | 37 ft | 5 kts | 304° |
| 2026-04-22 10:59 | 25.24775 | 55.38078 | 37 ft | 0 kts | 303° |
| 2026-04-22 10:59 | 25.24775 | 55.38077 | 37 ft | 3 kts | 303° |
| 2026-04-22 10:59 | 25.24861 | 55.37932 | 35 ft | 53 kts | 302° |
| 2026-04-22 11:00 | 25.25229 | 55.37267 | 37 ft | 149 kts | 302° |
| 2026-04-22 11:00 | 25.25941 | 55.36036 | 151 ft | 220 kts | 302° |
| 2026-04-22 11:00 | 25.26711 | 55.34542 | 1206 ft | 222 kts | 302° |
| 2026-04-22 11:00 | 25.27485 | 55.33126 | 2621 ft | 207 kts | 303° |
| 2026-04-22 11:01 | 25.28237 | 55.31793 | 3346 ft | 206 kts | 303° |
| 2026-04-22 11:01 | 25.29014 | 55.30411 | 3885 ft | 214 kts | 297° |
| 2026-04-22 11:01 | 25.29354 | 55.28812 | 3963 ft | 220 kts | 259° |
| 2026-04-22 11:01 | 25.28749 | 55.27272 | 4038 ft | 228 kts | 241° |
| 2026-04-22 11:02 | 25.28024 | 55.25752 | 4038 ft | 219 kts | 244° |
| 2026-04-22 11:02 | 25.27342 | 55.24201 | 4019 ft | 232 kts | 245° |
| 2026-04-22 11:02 | 25.26633 | 55.22560 | 3994 ft | 239 kts | 245° |
| 2026-04-22 11:02 | 25.25919 | 55.20894 | 3971 ft | 239 kts | 245° |
| 2026-04-22 11:03 | 25.25207 | 55.19227 | 3996 ft | 241 kts | 245° |
| 2026-04-22 11:03 | 25.24363 | 55.17650 | 3977 ft | 239 kts | 223° |
| 2026-04-22 11:03 | 25.22922 | 55.16790 | 4007 ft | 239 kts | 188° |
| 2026-04-22 11:03 | 25.21251 | 55.16754 | 4007 ft | 242 kts | 177° |
| 2026-04-22 11:04 | 25.19555 | 55.16954 | 4378 ft | 249 kts | 164° |
| 2026-04-22 11:04 | 25.18083 | 55.17971 | 4910 ft | 257 kts | 128° |
| 2026-04-22 11:04 | 25.17193 | 55.19680 | 5526 ft | 259 kts | 118° |
| 2026-04-22 11:04 | 25.16371 | 55.21459 | 6286 ft | 260 kts | 119° |
| 2026-04-22 11:05 | 25.15533 | 55.23238 | 7015 ft | 264 kts | 120° |
| 2026-04-22 11:05 | 25.14671 | 55.25052 | 7633 ft | 270 kts | 120° |
| 2026-04-22 11:05 | 25.13798 | 55.26877 | 8302 ft | 274 kts | 120° |
| 2026-04-22 11:05 | 25.12897 | 55.28759 | 8871 ft | 283 kts | 120° |
| 2026-04-22 11:06 | 25.11938 | 55.30753 | 8995 ft | 300 kts | 120° |
| 2026-04-22 11:06 | 25.10956 | 55.32793 | 9000 ft | 301 kts | 120° |
| 2026-04-22 11:06 | 25.10028 | 55.34882 | 9019 ft | 304 kts | 116° |
| 2026-04-22 11:06 | 25.09164 | 55.37016 | 9553 ft | 306 kts | 116° |
| 2026-04-22 11:07 | 25.08292 | 55.39166 | 10281 ft | 308 kts | 116° |
| 2026-04-22 11:07 | 25.07409 | 55.41325 | 11081 ft | 309 kts | 116° |
| 2026-04-22 11:07 | 25.06558 | 55.43479 | 11837 ft | 310 kts | 115° |
| 2026-04-22 11:07 | 25.05715 | 55.45684 | 12551 ft | 314 kts | 115° |
| 2026-04-22 11:08 | 25.04865 | 55.47912 | 13310 ft | 316 kts | 115° |
| 2026-04-22 11:08 | 25.04006 | 55.50154 | 14009 ft | 319 kts | 115° |
| 2026-04-22 11:08 | 25.03136 | 55.52414 | 14665 ft | 322 kts | 115° |
| 2026-04-22 11:08 | 25.02253 | 55.54703 | 15321 ft | 326 kts | 115° |
| 2026-04-22 11:09 | 25.01265 | 55.56966 | 15979 ft | 328 kts | 122° |
| 2026-04-22 11:09 | 25.00084 | 55.59139 | 16660 ft | 331 kts | 124° |
| 2026-04-22 11:09 | 24.98853 | 55.61305 | 17330 ft | 335 kts | 124° |
| 2026-04-22 11:09 | 24.97621 | 55.63505 | 18000 ft | 339 kts | 124° |
| 2026-04-22 11:10 | 24.96393 | 55.65747 | 18562 ft | 344 kts | 123° |
| 2026-04-22 11:10 | 24.95160 | 55.68021 | 19120 ft | 348 kts | 123° |
| 2026-04-22 11:10 | 24.93902 | 55.70322 | 19683 ft | 353 kts | 126° |
| 2026-04-22 11:10 | 24.92502 | 55.72552 | 20209 ft | 356 kts | 129° |
| 2026-04-22 11:11 | 24.91029 | 55.74725 | 20777 ft | 360 kts | 130° |
| 2026-04-22 11:11 | 24.89605 | 55.76807 | 21315 ft | 364 kts | 130° |
| 2026-04-22 11:11 | 24.88082 | 55.79061 | 21881 ft | 369 kts | 130° |
| 2026-04-22 11:11 | 24.86554 | 55.81350 | 22435 ft | 374 kts | 130° |
| 2026-04-22 11:12 | 24.85007 | 55.83680 | 22985 ft | 379 kts | 130° |
| 2026-04-22 11:12 | 24.83440 | 55.86035 | 23516 ft | 383 kts | 130° |
| 2026-04-22 11:12 | 24.81845 | 55.88403 | 24016 ft | 385 kts | 130° |
| 2026-04-22 11:12 | 24.80241 | 55.90777 | 24506 ft | 387 kts | 130° |
| 2026-04-22 11:13 | 24.79172 | 55.92353 | 24802 ft | 389 kts | 130° |
| 2026-04-22 11:13 | 24.77503 | 55.94699 | 25290 ft | 388 kts | 137° |
| 2026-04-22 11:13 | 24.75570 | 55.96774 | 25777 ft | 388 kts | 143° |
| 2026-04-22 11:13 | 24.73533 | 55.98736 | 26265 ft | 391 kts | 143° |
| 2026-04-22 11:14 | 24.71497 | 56.00734 | 26758 ft | 394 kts | 141° |
| 2026-04-22 11:14 | 24.69469 | 56.02793 | 27249 ft | 398 kts | 141° |
| 2026-04-22 11:14 | 24.67444 | 56.04876 | 27727 ft | 400 kts | 141° |
| 2026-04-22 11:14 | 24.65400 | 56.06976 | 28217 ft | 403 kts | 141° |
| 2026-04-22 11:15 | 24.63335 | 56.09092 | 28625 ft | 409 kts | 141° |
| 2026-04-22 11:15 | 24.61217 | 56.11256 | 28682 ft | 423 kts | 140° |
| 2026-04-22 11:15 | 24.59030 | 56.13495 | 28804 ft | 436 kts | 140° |
| 2026-04-22 11:15 | 24.56812 | 56.15838 | 28906 ft | 450 kts | 136° |
| 2026-04-22 11:16 | 24.54705 | 56.18444 | 29007 ft | 463 kts | 133° |
| 2026-04-22 11:16 | 24.52585 | 56.21168 | 29094 ft | 475 kts | 133° |
| 2026-04-22 11:16 | 24.50422 | 56.23965 | 29174 ft | 486 kts | 133° |
| 2026-04-22 11:16 | 24.48204 | 56.26822 | 29258 ft | 497 kts | 133° |
| 2026-04-22 11:17 | 24.45966 | 56.29691 | 29347 ft | 505 kts | 133° |
| 2026-04-22 11:17 | 24.43653 | 56.32641 | 29461 ft | 512 kts | 133° |
| 2026-04-22 11:17 | 24.41309 | 56.35623 | 29631 ft | 517 kts | 133° |
| 2026-04-22 11:17 | 24.38949 | 56.38620 | 29920 ft | 519 kts | 133° |
| 2026-04-22 11:18 | 24.36593 | 56.41611 | 30277 ft | 518 kts | 133° |
| 2026-04-22 11:18 | 24.34248 | 56.44588 | 30657 ft | 516 kts | 133° |
| 2026-04-22 11:18 | 24.31892 | 56.47575 | 30975 ft | 516 kts | 133° |
| 2026-04-22 11:18 | 24.29564 | 56.50572 | 31269 ft | 518 kts | 130° |
| 2026-04-22 11:19 | 24.27391 | 56.53739 | 31512 ft | 519 kts | 128° |
| 2026-04-22 11:19 | 24.25273 | 56.56957 | 31827 ft | 520 kts | 127° |
| 2026-04-22 11:19 | 24.23196 | 56.60138 | 32161 ft | 519 kts | 127° |
| 2026-04-22 11:19 | 24.21092 | 56.63350 | 32502 ft | 518 kts | 127° |
| 2026-04-22 11:20 | 24.18973 | 56.66564 | 32787 ft | 519 kts | 128° |
| 2026-04-22 11:20 | 24.16850 | 56.69766 | 33072 ft | 519 kts | 128° |
| 2026-04-22 11:20 | 24.14725 | 56.72959 | 33347 ft | 519 kts | 128° |
| 2026-04-22 11:20 | 24.12595 | 56.76156 | 33635 ft | 519 kts | 128° |
| 2026-04-22 11:21 | 24.10456 | 56.79366 | 33747 ft | 523 kts | 128° |
| 2026-04-22 11:21 | 24.06040 | 56.85602 | 33797 ft | 518 kts | 138° |
| 2026-04-22 11:21 | 24.03252 | 56.88052 | 33820 ft | 511 kts | 150° |
| 2026-04-22 11:22 | 24.00149 | 56.89884 | 33819 ft | 506 kts | 160° |
| 2026-04-22 11:22 | 23.96815 | 56.91067 | 33811 ft | 499 kts | 171° |
| 2026-04-22 11:22 | 23.93435 | 56.91911 | 33824 ft | 499 kts | 171° |
| 2026-04-22 11:23 | 23.86626 | 56.93616 | 33827 ft | 502 kts | 170° |
| 2026-04-22 11:23 | 23.79807 | 56.95405 | 33832 ft | 505 kts | 170° |
| 2026-04-22 11:24 | 23.72971 | 56.97241 | 33837 ft | 507 kts | 169° |
| 2026-04-22 11:24 | 23.66121 | 56.99082 | 33834 ft | 508 kts | 170° |
| 2026-04-22 11:25 | 23.59288 | 57.00912 | 33853 ft | 508 kts | 170° |
| 2026-04-22 11:25 | 23.52417 | 57.02748 | 33861 ft | 508 kts | 169° |
| 2026-04-22 11:26 | 23.45537 | 57.04584 | 33869 ft | 508 kts | 170° |
| 2026-04-22 11:26 | 23.38611 | 57.05910 | 33877 ft | 502 kts | 181° |
| 2026-04-22 11:27 | 23.31693 | 57.05451 | 33798 ft | 497 kts | 195° |
| 2026-04-22 11:27 | 23.24965 | 57.03812 | 33692 ft | 493 kts | 197° |
| 2026-04-22 11:28 | 23.18226 | 57.02157 | 33844 ft | 499 kts | 197° |
| 2026-04-22 11:28 | 23.11454 | 57.00562 | 33883 ft | 496 kts | 196° |
| 2026-04-22 11:29 | 23.04708 | 56.98991 | 33886 ft | 495 kts | 197° |
| 2026-04-22 11:29 | 22.98003 | 56.97418 | 33895 ft | 494 kts | 197° |
| 2026-04-22 11:30 | 22.91345 | 56.95827 | 33886 ft | 495 kts | 197° |
| 2026-04-22 11:30 | 22.84785 | 56.93794 | 33876 ft | 482 kts | 214° |
| 2026-04-22 11:30 | 22.82103 | 56.91680 | 33890 ft | 473 kts | 229° |
| 2026-04-22 11:31 | 22.80002 | 56.88972 | 33873 ft | 466 kts | 242° |
| 2026-04-22 11:31 | 22.77037 | 56.82774 | 33866 ft | 465 kts | 248° |
| 2026-04-22 11:32 | 22.74127 | 56.76479 | 33869 ft | 469 kts | 247° |
| 2026-04-22 11:32 | 22.71150 | 56.70205 | 33852 ft | 472 kts | 246° |
| 2026-04-22 11:33 | 22.68122 | 56.63903 | 33846 ft | 471 kts | 246° |
| 2026-04-22 11:33 | 22.65096 | 56.57623 | 33830 ft | 468 kts | 246° |
| 2026-04-22 11:34 | 22.62093 | 56.51388 | 33830 ft | 466 kts | 247° |
| 2026-04-22 11:34 | 22.59101 | 56.45180 | 33825 ft | 464 kts | 247° |
| 2026-04-22 11:35 | 22.56138 | 56.39038 | 33819 ft | 462 kts | 247° |
| 2026-04-22 11:35 | 22.53157 | 56.32878 | 33813 ft | 462 kts | 247° |
| 2026-04-22 11:36 | 22.50167 | 56.26718 | 33811 ft | 462 kts | 247° |
| 2026-04-22 11:36 | 22.47180 | 56.20570 | 33801 ft | 462 kts | 247° |
| 2026-04-22 11:37 | 22.44182 | 56.14403 | 33798 ft | 462 kts | 247° |
| 2026-04-22 11:37 | 22.41200 | 56.08275 | 33789 ft | 462 kts | 247° |
| 2026-04-22 11:38 | 22.38202 | 56.02122 | 33788 ft | 462 kts | 247° |
| 2026-04-22 11:38 | 22.33702 | 55.92952 | 33782 ft | 462 kts | 247° |
| 2026-04-22 11:39 | 22.30687 | 55.86825 | 33776 ft | 461 kts | 247° |
| 2026-04-22 11:39 | 22.27678 | 55.80710 | 33778 ft | 460 kts | 247° |
| 2026-04-22 11:40 | 22.24670 | 55.74605 | 33771 ft | 459 kts | 247° |
| 2026-04-22 11:40 | 22.21677 | 55.68525 | 33762 ft | 458 kts | 247° |
| 2026-04-22 11:41 | 22.18683 | 55.62447 | 33761 ft | 458 kts | 247° |
| 2026-04-22 11:41 | 22.16323 | 55.56198 | 33764 ft | 449 kts | 258° |
| 2026-04-22 11:42 | 22.15071 | 55.49632 | 33759 ft | 444 kts | 267° |
| 2026-04-22 11:42 | 22.14535 | 55.42995 | 33751 ft | 444 kts | 268° |
| 2026-04-22 11:43 | 22.14033 | 55.36353 | 33746 ft | 444 kts | 268° |
| 2026-04-22 11:43 | 22.13505 | 55.29699 | 33743 ft | 445 kts | 268° |
| 2026-04-22 11:44 | 22.12961 | 55.23058 | 33727 ft | 445 kts | 268° |
| 2026-04-22 11:44 | 22.12406 | 55.16408 | 33741 ft | 445 kts | 268° |
| 2026-04-22 11:45 | 22.11848 | 55.09759 | 33737 ft | 445 kts | 268° |
| 2026-04-22 11:45 | 22.11292 | 55.03161 | 33725 ft | 444 kts | 268° |
| 2026-04-22 11:46 | 22.10731 | 54.96540 | 33733 ft | 443 kts | 268° |
| 2026-04-22 11:46 | 22.10170 | 54.89927 | 33731 ft | 442 kts | 268° |
| 2026-04-22 11:47 | 22.09615 | 54.83405 | 33723 ft | 442 kts | 268° |
| 2026-04-22 11:47 | 22.09049 | 54.76820 | 33729 ft | 441 kts | 268° |
| 2026-04-22 11:48 | 22.08482 | 54.70242 | 33724 ft | 440 kts | 268° |
| 2026-04-22 11:48 | 22.07913 | 54.63659 | 33723 ft | 440 kts | 268° |
| 2026-04-22 11:49 | 22.07345 | 54.57125 | 33725 ft | 440 kts | 268° |
| 2026-04-22 11:49 | 22.06769 | 54.50542 | 33726 ft | 440 kts | 268° |
| 2026-04-22 11:50 | 22.06193 | 54.43965 | 33722 ft | 440 kts | 268° |
| 2026-04-22 11:50 | 22.05613 | 54.37406 | 33721 ft | 439 kts | 268° |
| 2026-04-22 11:51 | 22.05037 | 54.30903 | 33719 ft | 438 kts | 268° |
| 2026-04-22 11:51 | 22.04455 | 54.24365 | 33723 ft | 437 kts | 268° |
| 2026-04-22 11:52 | 22.03871 | 54.17838 | 33721 ft | 437 kts | 268° |
| 2026-04-22 11:52 | 22.03287 | 54.11327 | 33717 ft | 436 kts | 268° |
| 2026-04-22 11:53 | 22.02700 | 54.04817 | 33717 ft | 436 kts | 268° |
| 2026-04-22 11:53 | 22.02111 | 53.98319 | 33721 ft | 435 kts | 268° |
| 2026-04-22 11:54 | 22.01521 | 53.91837 | 33722 ft | 434 kts | 268° |
| 2026-04-22 11:54 | 22.00932 | 53.85395 | 33724 ft | 434 kts | 268° |
| 2026-04-22 11:55 | 22.00335 | 53.78904 | 33725 ft | 434 kts | 268° |
| 2026-04-22 11:55 | 21.99740 | 53.72446 | 33728 ft | 433 kts | 267° |
| 2026-04-22 11:56 | 21.99142 | 53.65989 | 33719 ft | 432 kts | 267° |
| 2026-04-22 11:56 | 21.98548 | 53.59603 | 33722 ft | 431 kts | 267° |
| 2026-04-22 11:57 | 21.97949 | 53.53188 | 33720 ft | 430 kts | 267° |
| 2026-04-22 11:57 | 21.97349 | 53.46778 | 33719 ft | 430 kts | 267° |
| 2026-04-22 11:58 | 21.96746 | 53.40373 | 33722 ft | 429 kts | 267° |
| 2026-04-22 11:58 | 21.96139 | 53.33968 | 33723 ft | 429 kts | 267° |
| 2026-04-22 11:59 | 21.95535 | 53.27604 | 33724 ft | 430 kts | 267° |
| 2026-04-22 11:59 | 21.94923 | 53.21194 | 33719 ft | 430 kts | 267° |
| 2026-04-22 12:00 | 21.94414 | 53.15871 | 33720 ft | 430 kts | 267° |
| 2026-04-22 12:00 | 21.93797 | 53.09458 | 33718 ft | 429 kts | 267° |
| 2026-04-22 12:01 | 21.93180 | 53.03056 | 33716 ft | 429 kts | 267° |
| 2026-04-22 12:01 | 21.92559 | 52.96651 | 33721 ft | 429 kts | 267° |
| 2026-04-22 12:02 | 21.91941 | 52.90293 | 33719 ft | 429 kts | 267° |
| 2026-04-22 12:02 | 21.91316 | 52.83895 | 33719 ft | 429 kts | 267° |
| 2026-04-22 12:03 | 21.90690 | 52.77504 | 33723 ft | 429 kts | 267° |
| 2026-04-22 12:03 | 21.90436 | 52.71111 | 33722 ft | 426 kts | 274° |
| 2026-04-22 12:04 | 21.91014 | 52.64764 | 33721 ft | 424 kts | 281° |
| 2026-04-22 12:04 | 21.92154 | 52.58532 | 33732 ft | 424 kts | 282° |
| 2026-04-22 12:05 | 21.93332 | 52.52295 | 33724 ft | 425 kts | 282° |
| 2026-04-22 12:05 | 21.94496 | 52.46045 | 33725 ft | 426 kts | 282° |
| 2026-04-22 12:06 | 21.95641 | 52.39825 | 33723 ft | 426 kts | 282° |
| 2026-04-22 12:06 | 21.96787 | 52.33557 | 33727 ft | 426 kts | 281° |
| 2026-04-22 12:07 | 21.97929 | 52.27292 | 33728 ft | 426 kts | 281° |
| 2026-04-22 12:07 | 21.99069 | 52.21025 | 33727 ft | 426 kts | 281° |
| 2026-04-22 12:08 | 22.00206 | 52.14764 | 33726 ft | 426 kts | 281° |
| 2026-04-22 12:08 | 22.01341 | 52.08495 | 33728 ft | 426 kts | 281° |
| 2026-04-22 12:09 | 22.02464 | 52.02278 | 33727 ft | 426 kts | 281° |
| 2026-04-22 12:09 | 22.03594 | 51.96012 | 33727 ft | 426 kts | 281° |
| 2026-04-22 12:10 | 22.04722 | 51.89744 | 33732 ft | 425 kts | 281° |
| 2026-04-22 12:10 | 22.05846 | 51.83482 | 33730 ft | 425 kts | 281° |
| 2026-04-22 12:11 | 22.06967 | 51.77218 | 33737 ft | 426 kts | 281° |
| 2026-04-22 12:11 | 22.08087 | 51.70951 | 33734 ft | 426 kts | 281° |
| 2026-04-22 12:12 | 22.09206 | 51.64676 | 33729 ft | 426 kts | 281° |
| 2026-04-22 12:12 | 22.10313 | 51.58450 | 33731 ft | 426 kts | 281° |
| 2026-04-22 12:13 | 22.11424 | 51.52186 | 33731 ft | 425 kts | 281° |
| 2026-04-22 12:13 | 22.12535 | 51.45915 | 33732 ft | 425 kts | 281° |
| 2026-04-22 12:14 | 22.13643 | 51.39640 | 33737 ft | 425 kts | 281° |
| 2026-04-22 12:14 | 22.14748 | 51.33371 | 33739 ft | 425 kts | 281° |
| 2026-04-22 12:15 | 22.15851 | 51.27095 | 33740 ft | 425 kts | 281° |
| 2026-04-22 12:15 | 22.16950 | 51.20828 | 33740 ft | 425 kts | 281° |
| 2026-04-22 12:16 | 22.18047 | 51.14561 | 33737 ft | 425 kts | 281° |
| 2026-04-22 12:16 | 22.19134 | 51.08334 | 33739 ft | 425 kts | 281° |
| 2026-04-22 12:17 | 22.20226 | 51.02066 | 33737 ft | 424 kts | 281° |
| 2026-04-22 12:17 | 22.21314 | 50.95803 | 33734 ft | 424 kts | 281° |
| 2026-04-22 12:18 | 22.22399 | 50.89540 | 33739 ft | 424 kts | 281° |
| 2026-04-22 12:18 | 22.23482 | 50.83277 | 33744 ft | 424 kts | 281° |
| 2026-04-22 12:19 | 22.24556 | 50.77056 | 33734 ft | 424 kts | 281° |
| 2026-04-22 12:19 | 22.25633 | 50.70800 | 33737 ft | 424 kts | 281° |
| 2026-04-22 12:20 | 22.26709 | 50.64533 | 33744 ft | 424 kts | 280° |
| 2026-04-22 12:20 | 22.27783 | 50.58264 | 33748 ft | 424 kts | 280° |
| 2026-04-22 12:21 | 22.28854 | 50.51996 | 33749 ft | 424 kts | 280° |
| 2026-04-22 12:21 | 22.29922 | 50.45731 | 33739 ft | 424 kts | 280° |
| 2026-04-22 12:22 | 22.30987 | 50.39465 | 33742 ft | 424 kts | 280° |
| 2026-04-22 12:22 | 22.32044 | 50.33240 | 33739 ft | 424 kts | 280° |
| 2026-04-22 12:23 | 22.33104 | 50.26978 | 33739 ft | 424 kts | 280° |
| 2026-04-22 12:23 | 22.34162 | 50.20708 | 33746 ft | 424 kts | 280° |
| 2026-04-22 12:24 | 22.35217 | 50.14445 | 33742 ft | 424 kts | 280° |
| 2026-04-22 12:24 | 22.36269 | 50.08185 | 33740 ft | 424 kts | 280° |
| 2026-04-22 12:25 | 22.37314 | 50.01949 | 33741 ft | 424 kts | 280° |
| 2026-04-22 12:25 | 22.38363 | 49.95675 | 33743 ft | 424 kts | 280° |
| 2026-04-22 12:26 | 22.39409 | 49.89407 | 33742 ft | 424 kts | 280° |
| 2026-04-22 12:26 | 22.40453 | 49.83133 | 33741 ft | 424 kts | 280° |
| 2026-04-22 12:27 | 22.41486 | 49.76908 | 33741 ft | 423 kts | 280° |
| 2026-04-22 12:27 | 22.42523 | 49.70645 | 33738 ft | 423 kts | 280° |
| 2026-04-22 12:28 | 22.43558 | 49.64377 | 33745 ft | 423 kts | 280° |
| 2026-04-22 12:28 | 22.44590 | 49.58110 | 33746 ft | 423 kts | 280° |
| 2026-04-22 12:29 | 22.45623 | 49.51830 | 33745 ft | 423 kts | 280° |
| 2026-04-22 12:29 | 22.46645 | 49.45591 | 33740 ft | 423 kts | 280° |
| 2026-04-22 12:30 | 22.48184 | 49.36174 | 33745 ft | 423 kts | 280° |
| 2026-04-22 12:31 | 22.49207 | 49.29896 | 33746 ft | 423 kts | 280° |
| 2026-04-22 12:31 | 22.50226 | 49.23623 | 33750 ft | 424 kts | 280° |
| 2026-04-22 12:32 | 22.51237 | 49.17384 | 33747 ft | 424 kts | 280° |